TimeCDT,TemperatureF,Dew PointF,Humidity,Sea Level PressureIn,VisibilityMPH,Wind Direction,Wind SpeedMPH,Gust SpeedMPH,PrecipitationIn,Events,Conditions,WindDirDegrees,DateUTC
12:15 AM,50.0,48.2,94,29.79,0.2,ENE,3.5,-,N/A,Fog,Fog,60,2012-10-24 05:15:00
12:35 AM,50.0,48.2,94,29.79,0.5,NE,4.6,-,N/A,Fog,Fog,50,2012-10-24 05:35:00
1:15 AM,51.8,50.0,94,29.81,1.0,NE,3.5,-,N/A,,Overcast,40,2012-10-24 06:15:00
1:35 AM,53.6,51.8,94,29.81,1.2,ENE,3.5,-,N/A,,Overcast,60,2012-10-24 06:35:00
1:55 AM,51.8,50.0,94,29.81,2.5,Calm,Calm,-,N/A,,Overcast,0,2012-10-24 06:55:00
2:15 AM,53.6,51.8,94,29.81,3.0,Calm,Calm,-,N/A,,Overcast,0,2012-10-24 07:15:00
2:35 AM,50.0,48.2,94,29.81,2.5,North,3.5,-,N/A,,Overcast,360,2012-10-24 07:35:00
2:55 AM,53.6,51.8,94,29.82,5.0,NW,3.5,-,N/A,,Overcast,320,2012-10-24 07:55:00
3:15 AM,48.2,48.2,100,29.84,2.0,WNW,4.6,-,N/A,,Overcast,300,2012-10-24 08:15:00
3:35 AM,50.0,48.2,94,29.85,2.5,NW,3.5,-,N/A,,Overcast,320,2012-10-24 08:35:00
3:55 AM,51.8,48.2,88,29.84,4.0,North,6.9,-,N/A,,Overcast,350,2012-10-24 08:55:00
4:15 AM,51.8,48.2,88,29.84,5.0,North,5.8,-,N/A,,Overcast,360,2012-10-24 09:15:00
4:35 AM,53.6,50.0,88,29.84,4.0,North,5.8,-,N/A,,Overcast,10,2012-10-24 09:35:00
4:55 AM,53.6,50.0,88,29.82,4.0,NNE,4.6,-,N/A,,Overcast,20,2012-10-24 09:55:00
5:15 AM,53.6,51.8,94,29.81,4.0,NNE,6.9,-,N/A,,Overcast,20,2012-10-24 10:15:00
5:35 AM,53.6,51.8,94,29.81,3.0,NNE,8.1,-,N/A,,Overcast,30,2012-10-24 10:35:00
5:55 AM,53.6,51.8,94,29.81,3.0,NE,5.8,-,N/A,,Overcast,40,2012-10-24 10:55:00
6:15 AM,53.6,51.8,94,29.80,3.0,NNE,9.2,-,N/A,,Overcast,30,2012-10-24 11:15:00
6:35 AM,55.4,51.8,88,29.79,3.0,NE,10.4,-,N/A,,Overcast,40,2012-10-24 11:35:00
6:55 AM,55.4,51.8,88,29.79,3.0,NE,8.1,-,N/A,,Overcast,40,2012-10-24 11:55:00
7:15 AM,55.4,51.8,88,29.79,3.0,NE,9.2,16.1,N/A,,Overcast,40,2012-10-24 12:15:00
7:35 AM,55.4,51.8,88,29.81,3.0,NNE,10.4,16.1,N/A,,Overcast,20,2012-10-24 12:35:00
7:55 AM,53.6,51.8,94,29.83,3.0,NNE,9.2,-,N/A,,Overcast,20,2012-10-24 12:55:00
8:15 AM,53.6,51.8,94,29.84,3.0,NE,9.2,-,N/A,,Overcast,40,2012-10-24 13:15:00
8:35 AM,51.8,50.0,94,29.84,2.5,NE,8.1,-,N/A,,Overcast,50,2012-10-24 13:35:00
8:55 AM,51.8,48.2,88,29.85,2.5,NNE,9.2,-,N/A,,Overcast,20,2012-10-24 13:55:00
9:15 AM,51.8,48.2,88,29.85,2.0,NNE,9.2,16.1,0.01,,Light Drizzle,20,2012-10-24 14:15:00
9:35 AM,50.0,48.2,94,29.84,2.0,North,11.5,-,0.01,,Drizzle,10,2012-10-24 14:35:00
9:55 AM,48.2,46.4,93,29.84,2.0,North,13.8,18.4,0.01,,Drizzle,10,2012-10-24 14:55:00
10:15 AM,48.2,46.4,93,29.83,2.0,NNE,12.7,19.6,N/A,,Light Drizzle,20,2012-10-24 15:15:00
10:35 AM,48.2,46.4,93,29.82,2.5,NNE,13.8,21.9,N/A,,Overcast,20,2012-10-24 15:35:00
10:55 AM,48.2,46.4,93,29.82,2.5,NNE,11.5,-,N/A,,Overcast,30,2012-10-24 15:55:00
11:15 AM,48.2,46.4,93,29.82,2.5,NNE,10.4,18.4,N/A,,Overcast,20,2012-10-24 16:15:00
11:35 AM,48.2,46.4,93,29.82,3.0,NNE,10.4,19.6,N/A,,Overcast,20,2012-10-24 16:35:00
11:55 AM,48.2,46.4,93,29.82,2.5,NNE,13.8,19.6,N/A,,Overcast,30,2012-10-24 16:55:00
12:15 PM,48.2,46.4,93,29.82,2.0,North,12.7,18.4,N/A,,Overcast,10,2012-10-24 17:15:00
12:35 PM,48.2,46.4,93,29.81,2.0,North,9.2,17.3,N/A,,Overcast,10,2012-10-24 17:35:00
12:55 PM,48.2,46.4,93,29.80,1.8,North,9.2,18.4,N/A,,Drizzle,10,2012-10-24 17:55:00
1:15 PM,46.4,46.4,100,29.80,1.8,North,13.8,18.4,0.01,,Drizzle,360,2012-10-24 18:15:00
1:35 PM,48.2,46.4,93,29.80,2.0,North,11.5,-,0.02,,Heavy Drizzle,360,2012-10-24 18:35:00
1:55 PM,46.4,46.4,100,29.79,2.0,North,12.7,18.4,0.03,,Drizzle,360,2012-10-24 18:55:00
2:15 PM,48.2,46.4,93,29.79,2.0,North,10.4,17.3,N/A,,Drizzle,360,2012-10-24 19:15:00
2:35 PM,46.4,46.4,100,29.79,2.0,North,13.8,18.4,0.01,,Drizzle,360,2012-10-24 19:35:00
2:55 PM,46.4,44.6,93,29.79,2.0,North,17.3,24.2,0.01,,Drizzle,10,2012-10-24 19:55:00
3:15 PM,46.4,44.6,93,29.80,2.5,North,13.8,19.6,N/A,,Light Drizzle,360,2012-10-24 20:15:00
3:35 PM,46.4,44.6,93,29.79,2.5,North,15.0,20.7,N/A,,Drizzle,10,2012-10-24 20:35:00
3:55 PM,44.6,44.6,100,29.79,2.5,North,12.7,19.6,N/A,,Light Drizzle,10,2012-10-24 20:55:00
4:15 PM,44.6,44.6,100,29.79,2.5,North,12.7,19.6,N/A,,Light Drizzle,10,2012-10-24 21:15:00
4:35 PM,46.4,44.6,93,29.79,3.0,North,12.7,20.7,N/A,,Light Drizzle,10,2012-10-24 21:35:00
4:55 PM,44.6,42.8,93,29.79,3.0,NNE,15.0,21.9,N/A,,Overcast,20,2012-10-24 21:55:00
5:15 PM,46.4,42.8,87,29.79,5.0,North,13.8,21.9,N/A,,Overcast,10,2012-10-24 22:15:00
5:35 PM,46.4,42.8,87,29.79,7.0,North,12.7,19.6,N/A,,Overcast,10,2012-10-24 22:35:00
5:55 PM,46.4,39.2,76,29.80,7.0,North,13.8,21.9,N/A,,Overcast,10,2012-10-24 22:55:00
6:15 PM,44.6,39.2,81,29.79,7.0,NNE,17.3,21.9,N/A,,Overcast,20,2012-10-24 23:15:00
6:35 PM,44.6,37.4,76,29.80,7.0,North,9.2,20.7,N/A,,Overcast,10,2012-10-24 23:35:00
6:55 PM,44.6,39.2,81,29.80,10.0,North,12.7,19.6,N/A,,Overcast,10,2012-10-24 23:55:00
7:15 PM,46.4,39.2,76,29.80,10.0,North,10.4,18.4,N/A,,Overcast,10,2012-10-25 00:15:00
7:35 PM,46.4,39.2,76,29.79,10.0,North,13.8,19.6,N/A,,Overcast,360,2012-10-25 00:35:00
7:55 PM,46.4,37.4,71,29.79,10.0,North,13.8,19.6,N/A,,Overcast,10,2012-10-25 00:55:00
8:15 PM,46.4,37.4,71,29.79,10.0,North,12.7,19.6,N/A,,Overcast,10,2012-10-25 01:15:00
8:35 PM,44.6,37.4,76,29.80,10.0,North,11.5,21.9,N/A,,Overcast,360,2012-10-25 01:35:00
8:55 PM,44.6,35.6,71,29.80,10.0,North,12.7,20.7,N/A,,Overcast,10,2012-10-25 01:55:00
9:15 PM,44.6,35.6,71,29.81,10.0,North,15.0,21.9,N/A,,Overcast,10,2012-10-25 02:15:00
9:35 PM,44.6,35.6,71,29.81,7.0,NNE,16.1,23.0,N/A,,Overcast,20,2012-10-25 02:35:00
9:55 PM,44.6,35.6,71,29.82,10.0,North,15.0,23.0,N/A,,Overcast,10,2012-10-25 02:55:00
10:15 PM,44.6,37.4,76,29.82,10.0,North,15.0,20.7,N/A,,Overcast,10,2012-10-25 03:15:00
10:35 PM,44.6,35.6,71,29.82,10.0,North,15.0,21.9,N/A,,Overcast,10,2012-10-25 03:35:00
10:55 PM,42.8,37.4,81,29.80,7.0,North,16.1,21.9,N/A,,Overcast,10,2012-10-25 03:55:00
11:15 PM,42.8,35.6,76,29.80,7.0,North,17.3,24.2,N/A,,Overcast,10,2012-10-25 04:15:00
11:35 PM,42.8,35.6,76,29.81,10.0,North,12.7,20.7,N/A,,Overcast,360,2012-10-25 04:35:00
11:55 PM,41.0,35.6,81,29.80,10.0,North,13.8,21.9,N/A,,Overcast,360,2012-10-25 04:55:00